Time;durP1;ratioP1;P1;durP2;ratioP2;P2;SDS_P1;SDS_P2;PMS_P1;PMS_P2;Temp;Humidity;BMP_temperature;BMP_pressure;BME280_temperature;BME280_humidity;BME280_pressure;Samples;Min_cycle;Max_cycle;Signal;HPM_P1;HPM_P2
2022/05/08 00:01:04;;;;;;;13.98;8.10;;;;;;;;;;5047482;28;20368;-74
2022/05/08 00:03:30;;;;;;;13.82;6.78;;;;;;;;;;5050330;28;20124;-76
2022/05/08 00:05:55;;;;;;;14.90;6.55;;;;;;;;;;5051034;28;20230;-75
2022/05/08 00:08:20;;;;;;;16.83;6.57;;;;;;;;;;5046469;28;20834;-73
2022/05/08 00:10:46;;;;;;;15.10;6.53;;;;;;;;;;5045364;28;20052;-75
2022/05/08 00:13:11;;;;;;;13.63;7.05;;;;;;;;;;5043051;28;20052;-74
2022/05/08 00:15:36;;;;;;;18.88;7.25;;;;;;;;;;5046163;28;20125;-74
2022/05/08 00:18:02;;;;;;;20.13;7.37;;;;;;;;;;5034533;28;20348;-74
2022/05/08 00:20:27;;;;;;;19.10;7.20;;;;;;;;;;5046933;28;20319;-74
2022/05/08 00:22:53;;;;;;;21.53;8.37;;;;;;;;;;5046131;28;20412;-75
2022/05/08 00:25:19;;;;;;;21.40;8.07;;;;;;;;;;5050352;28;20281;-75
2022/05/08 00:27:44;;;;;;;19.05;8.02;;;;;;;;;;5041756;28;20099;-75
2022/05/08 00:30:10;;;;;;;19.17;8.23;;;;;;;;;;5045478;28;20514;-75
2022/05/08 00:32:35;;;;;;;20.55;8.27;;;;;;;;;;5044311;28;20534;-74
2022/05/08 00:35:00;;;;;;;15.00;8.57;;;;;;;;;;5050370;28;20037;-75
2022/05/08 00:37:26;;;;;;;21.10;10.20;;;;;;;;;;5006716;28;20068;-75
2022/05/08 00:39:51;;;;;;;21.90;10.73;;;;;;;;;;5026635;28;20786;-75
2022/05/08 00:42:16;;;;;;;17.83;9.00;;;;;;;;;;5050307;28;20274;-75
2022/05/08 00:44:41;;;;;;;15.32;9.15;;;;;;;;;;5031830;28;20030;-76
2022/05/08 00:47:07;;;;;;;18.27;8.83;;;;;;;;;;5029657;28;20406;-76
2022/05/08 00:49:32;;;;;;;20.60;8.90;;;;;;;;;;5035647;28;20266;-76
2022/05/08 00:51:58;;;;;;;22.90;9.52;;;;;;;;;;5049402;28;20785;-75
2022/05/08 00:54:23;;;;;;;15.65;8.98;;;;;;;;;;5051084;28;20064;-74
2022/05/08 00:56:48;;;;;;;19.45;9.48;;;;;;;;;;5049322;28;20072;-74
2022/05/08 00:59:14;;;;;;;18.77;9.73;;;;;;;;;;5045911;28;20053;-78
2022/05/08 01:01:39;;;;;;;16.20;9.63;;;;;;;;;;5042476;28;20736;-73
2022/05/08 01:04:05;;;;;;;15.55;9.48;;;;;;;;;;5052391;28;20075;-73
2022/05/08 01:06:31;;;;;;;18.88;9.05;;;;;;;;;;5050144;28;20045;-72
2022/05/08 01:08:56;;;;;;;17.05;8.65;;;;;;;;;;5052993;28;20048;-74
2022/05/08 01:11:21;;;;;;;17.60;8.88;;;;;;;;;;5078806;28;20037;-75
2022/05/08 01:13:47;;;;;;;15.15;7.63;;;;;;;;;;5078633;28;20032;-74
2022/05/08 01:16:13;;;;;;;20.80;8.40;;;;;;;;;;5079511;28;20097;-74
2022/05/08 01:18:39;;;;;;;16.05;8.48;;;;;;;;;;5063891;28;20029;-73
2022/05/08 01:21:09;;;;;;;15.60;8.10;;;;;;;;;;5078094;28;20101;-72
2022/05/08 01:23:35;;;;;;;19.55;8.15;;;;;;;;;;5062192;28;20434;-74
2022/05/08 01:26:00;;;;;;;16.92;8.27;;;;;;;;;;5066431;28;20033;-74
2022/05/08 01:28:26;;;;;;;15.00;8.70;;;;;;;;;;5054571;28;20069;-73
2022/05/08 01:30:52;;;;;;;17.83;8.63;;;;;;;;;;5067857;28;20048;-74
2022/05/08 01:33:18;;;;;;;14.68;9.05;;;;;;;;;;5069468;28;20112;-73
2022/05/08 01:35:43;;;;;;;17.48;8.80;;;;;;;;;;5059765;28;20501;-73
2022/05/08 01:38:11;;;;;;;16.38;8.35;;;;;;;12.23;nan;100954.34;5045133;28;20029;-75
2022/05/08 01:40:36;;;;;;;17.80;8.35;;;;;;;;;;5054951;28;20380;-74
2022/05/08 01:43:02;;;;;;;18.20;9.37;;;;;;;;;;5045604;28;20053;-74
2022/05/08 01:45:28;;;;;;;14.10;8.65;;;;;;;;;;5054092;28;20277;-74
2022/05/08 01:50:37;;;;;;;16.00;7.70;;;;;;;;;;5054031;28;20072;-74
2022/05/08 01:53:03;;;;;;;17.70;8.73;;;;;;;;;;5053644;28;20495;-72
2022/05/08 01:55:28;;;;;;;13.75;8.60;;;;;;;;;;5052944;28;20040;-74
2022/05/08 01:57:54;;;;;;;21.67;8.40;;;;;;;;;;5052266;28;20067;-73
2022/05/08 02:00:20;;;;;;;19.70;9.07;;;;;;;;;;5053291;28;20057;-74
2022/05/08 02:02:48;;;;;;;18.00;9.05;;;;;;;;;;5052423;28;20052;-73
2022/05/08 02:05:17;;;;;;;19.27;8.82;;;;;;;;;;5053103;28;20044;-73
2022/05/08 02:07:44;;;;;;;19.17;9.43;;;;;;;;;;5051688;28;20037;-77
2022/05/08 02:10:09;;;;;;;19.33;8.93;;;;;;;;;;5048300;28;20123;-75
2022/05/08 02:12:34;;;;;;;17.13;9.75;;;;;;;;;;5052783;28;20115;-73
2022/05/08 02:15:00;;;;;;;14.27;8.98;;;;;;;;;;5050655;28;20037;-74
2022/05/08 02:17:25;;;;;;;18.40;9.37;;;;;;;;;;5047239;28;20049;-74
2022/05/08 02:19:51;;;;;;;19.08;10.23;;;;;;;12.04;nan;100935.06;5043412;28;20678;-74
2022/05/08 02:22:16;;;;;;;17.08;9.30;;;;;;;;;;5043009;28;20080;-75
2022/05/08 02:24:41;;;;;;;16.33;9.30;;;;;;;;;;5052428;28;20032;-74
2022/05/08 02:27:06;;;;;;;18.83;9.87;;;;;;;;;;5033792;28;20557;-75
2022/05/08 02:29:32;;;;;;;18.58;9.55;;;;;;;;;;5051199;28;20288;-74
2022/05/08 02:31:57;;;;;;;16.17;8.70;;;;;;;;;;5028838;28;20095;-75
2022/05/08 02:34:22;;;;;;;19.50;9.67;;;;;;;;;;5052406;28;20550;-75
2022/05/08 02:36:47;;;;;;;15.47;8.43;;;;;;;;;;5052908;28;20040;-73
2022/05/08 02:39:13;;;;;;;14.23;8.20;;;;;;;;;;5038633;28;20078;-74
2022/05/08 02:41:38;;;;;;;20.50;9.20;;;;;;;;;;5052689;28;20842;-74
2022/05/08 02:44:05;;;;;;;18.00;8.97;;;;;;;;;;5051801;28;20094;-75
2022/05/08 02:46:30;;;;;;;13.45;9.00;;;;;;;;;;5048059;28;20814;-73
2022/05/08 02:48:56;;;;;;;15.32;9.07;;;;;;;11.85;nan;100968.53;5045814;28;20041;-73
2022/05/08 02:51:21;;;;;;;17.67;9.00;;;;;;;;;;5053094;28;20479;-73
2022/05/08 02:53:46;;;;;;;17.73;8.83;;;;;;;;;;5052476;28;20120;-74
2022/05/08 02:58:55;;;;;;;14.05;8.20;;;;;;;;;;5047844;28;20041;-73
2022/05/08 03:01:21;;;;;;;13.87;8.43;;;;;;;;;;5050853;28;20053;-75
2022/05/08 03:03:46;;;;;;;19.48;9.30;;;;;;;;;;5039338;28;20294;-76
2022/05/08 03:06:13;;;;;;;17.95;8.15;;;;;;;;;;5033523;28;20037;-73
2022/05/08 03:08:39;;;;;;;16.17;9.07;;;;;;;;;;5027820;28;20072;-74
2022/05/08 03:13:48;;;;;;;16.00;8.05;;;;;;;;;;5021794;28;20148;-73
2022/05/08 03:16:13;;;;;;;19.60;8.13;;;;;;;;;;5044375;28;20109;-73
2022/05/08 03:18:40;;;;;;;17.77;8.13;;;;;;;;;;5034084;28;20041;-75
2022/05/08 03:21:06;;;;;;;12.13;7.50;;;;;;;;;;5001702;28;20132;-73
2022/05/08 03:23:33;;;;;;;14.30;7.22;;;;;;;;;;5036580;28;20108;-73
2022/05/08 03:25:59;;;;;;;14.05;7.50;;;;;;;;;;5033583;28;20048;-74
2022/05/08 03:28:24;;;;;;;15.63;7.70;;;;;;;;;;5046605;28;20692;-74
2022/05/08 03:30:49;;;;;;;13.57;7.43;;;;;;;;;;5037519;28;20513;-74
2022/05/08 03:33:15;;;;;;;13.07;7.57;;;;;;;;;;5052271;28;20281;-73
2022/05/08 03:35:41;;;;;;;14.27;7.75;;;;;;;;;;5050507;28;20283;-74
2022/05/08 03:38:06;;;;;;;13.43;7.45;;;;;;;;;;5052474;28;20047;-74
2022/05/08 03:40:32;;;;;;;14.48;7.47;;;;;;;;;;5051049;28;20033;-72
2022/05/08 03:42:58;;;;;;;12.82;7.38;;;;;;;;;;5052668;28;20052;-74
2022/05/08 03:45:24;;;;;;;11.57;7.00;;;;;;;;;;5051388;28;20040;-73
2022/05/08 03:47:50;;;;;;;15.30;7.00;;;;;;;;;;5031163;28;20095;-73
2022/05/08 03:50:16;;;;;;;13.82;7.32;;;;;;;;;;5034024;28;20312;-73
2022/05/08 03:52:41;;;;;;;14.77;7.97;;;;;;;;;;5052708;28;20045;-73
2022/05/08 03:55:06;;;;;;;14.55;7.88;;;;;;;;;;5051992;28;20087;-75
2022/05/08 03:57:32;;;;;;;13.98;7.40;;;;;;;;;;5050454;28;20042;-73
2022/05/08 03:59:57;;;;;;;14.73;8.50;;;;;;;;;;5042907;28;20104;-73
2022/05/08 04:02:22;;;;;;;19.63;8.67;;;;;;;;;;5050758;28;20064;-72
2022/05/08 04:04:47;;;;;;;14.13;7.60;;;;;;;;;;5050177;28;20846;-74
2022/05/08 04:07:13;;;;;;;17.90;8.50;;;;;;;;;;5047943;28;20033;-72
2022/05/08 04:09:38;;;;;;;13.82;8.02;;;;;;;;;;5041355;28;20274;-74
2022/05/08 04:12:04;;;;;;;13.60;7.68;;;;;;;;;;5078886;28;20027;-74
2022/05/08 04:14:29;;;;;;;17.00;7.68;;;;;;;;;;5070363;28;20131;-74
2022/05/08 04:16:54;;;;;;;15.18;7.47;;;;;;;;;;5069000;28;20033;-71
2022/05/08 04:19:20;;;;;;;15.97;7.60;;;;;;;;;;5057693;28;20036;-73
2022/05/08 04:21:45;;;;;;;17.92;7.93;;;;;;;;;;5068848;28;20305;-71
2022/05/08 04:24:16;;;;;;;11.50;7.30;;;;;;;;;;5063731;28;20101;-73
2022/05/08 04:26:42;;;;;;;15.90;7.35;;;;;;;;;;5068869;28;20051;-74
2022/05/08 04:29:07;;;;;;;14.68;7.75;;;;;;;;;;5047914;28;20037;-74
2022/05/08 04:31:32;;;;;;;13.52;6.68;;;;;;;;;;5057449;28;20036;-72
2022/05/08 04:33:57;;;;;;;11.10;6.82;;;;;;;;;;5061428;28;20136;-73
2022/05/08 04:36:23;;;;;;;13.17;6.40;;;;;;;;;;5051954;28;20045;-74
2022/05/08 04:38:48;;;;;;;10.07;6.25;;;;;;;;;;5040112;28;20282;-74
2022/05/08 04:41:13;;;;;;;16.00;7.10;;;;;;;;;;5057863;28;20029;-75
2022/05/08 04:43:39;;;;;;;21.05;6.60;;;;;;;;;;5045359;28;20048;-77
2022/05/08 04:46:04;;;;;;;14.05;6.68;;;;;;;;;;5043490;28;20457;-75
2022/05/08 04:48:29;;;;;;;13.37;6.93;;;;;;;;;;5052058;28;20466;-74
2022/05/08 04:50:55;;;;;;;13.07;6.72;;;;;;;;;;5055328;28;20102;-75
2022/05/08 04:53:20;;;;;;;11.48;6.80;;;;;;;;;;5053136;28;20029;-75
2022/05/08 04:55:46;;;;;;;13.38;6.47;;;;;;;;;;5054457;28;20095;-76
2022/05/08 04:58:11;;;;;;;11.65;6.60;;;;;;;;;;5052946;28;20503;-74
2022/05/08 05:00:36;;;;;;;14.27;7.20;;;;;;;;;;5054493;28;20090;-73
2022/05/08 05:03:02;;;;;;;17.45;6.90;;;;;;;;;;5035714;28;20814;-74
2022/05/08 05:05:27;;;;;;;14.70;6.90;;;;;;;;;;5052071;28;20036;-73
2022/05/08 05:07:52;;;;;;;12.40;6.07;;;;;;;;;;5053287;28;20711;-76
2022/05/08 05:10:18;;;;;;;12.02;6.30;;;;;;;;;;5055549;28;20075;-76
2022/05/08 05:12:43;;;;;;;11.93;6.03;;;;;;;;;;5058644;28;20641;-76
2022/05/08 05:15:09;;;;;;;13.30;5.93;;;;;;;;;;5055204;28;20036;-76
2022/05/08 05:17:34;;;;;;;9.48;6.22;;;;;;;;;;5053760;28;20309;-72
2022/05/08 05:20:00;;;;;;;12.38;6.47;;;;;;;;;;5051498;28;20517;-74
2022/05/08 05:22:25;;;;;;;9.95;5.97;;;;;;;;;;5034996;28;20037;-72
2022/05/08 05:24:51;;;;;;;16.92;6.22;;;;;;;;;;5024919;28;20119;-72
2022/05/08 05:27:17;;;;;;;14.35;6.13;;;;;;;;;;5052000;28;20087;-71
2022/05/08 05:29:42;;;;;;;15.38;6.05;;;;;;;;;;5050392;28;20036;-70
2022/05/08 05:32:07;;;;;;;13.25;5.65;;;;;;;;;;5035378;28;20391;-71
2022/05/08 05:34:33;;;;;;;9.57;5.68;;;;;;;;;;5045967;28;20033;-71
2022/05/08 05:36:58;;;;;;;13.13;5.90;;;;;;;;;;5039285;28;20490;-71
2022/05/08 05:39:26;;;;;;;9.73;5.82;;;;;;;;;;5050931;28;20501;-71
2022/05/08 05:41:52;;;;;;;14.93;5.40;;;;;;;;;;5032049;28;20042;-69
2022/05/08 05:44:17;;;;;;;9.57;5.47;;;;;;;;;;5041556;28;20041;-71
2022/05/08 05:49:27;;;;;;;9.82;5.50;;;;;;;;;;5044152;28;20318;-72
2022/05/08 05:51:53;;;;;;;10.02;5.32;;;;;;;;;;5052610;28;20552;-70
2022/05/08 05:54:21;;;;;;;8.50;4.97;;;;;;;;;;5053813;28;20047;-70
2022/05/08 05:56:46;;;;;;;16.52;5.45;;;;;;;;;;5052130;28;20043;-70
2022/05/08 05:59:12;;;;;;;7.93;5.10;;;;;;;;;;5044421;28;20127;-70
2022/05/08 06:01:37;;;;;;;11.00;5.73;;;;;;;;;;5051975;28;20086;-70
2022/05/08 06:04:02;;;;;;;7.87;5.03;;;;;;;;;;5045811;28;20294;-69
2022/05/08 06:06:27;;;;;;;11.95;5.57;;;;;;;;;;5042683;28;20336;-69
2022/05/08 06:08:53;;;;;;;12.73;5.97;;;;;;;;;;5025273;28;20047;-70
2022/05/08 06:11:18;;;;;;;12.90;5.80;;;;;;;;;;5046269;28;20310;-72
2022/05/08 06:13:43;;;;;;;12.40;5.50;;;;;;;;;;5039609;28;20041;-72
2022/05/08 06:16:09;;;;;;;14.75;5.70;;;;;;;;;;5041647;28;20493;-72
2022/05/08 06:18:34;;;;;;;9.60;4.83;;;;;;;;;;5033466;28;20048;-72
2022/05/08 06:21:02;;;;;;;10.07;5.13;;;;;;;;;;5052866;28;20262;-71
2022/05/08 06:23:27;;;;;;;12.05;5.07;;;;;;;;;;5051460;28;20286;-72
2022/05/08 06:25:52;;;;;;;10.33;4.97;;;;;;;;;;5052202;28;20118;-71
2022/05/08 06:28:19;;;;;;;11.43;5.03;;;;;;;;;;5030788;28;20278;-71
2022/05/08 06:30:45;;;;;;;9.07;4.95;;;;;;;;;;5044887;28;20075;-70
2022/05/08 06:33:10;;;;;;;9.30;4.70;;;;;;;;;;5039654;28;20045;-69
2022/05/08 06:35:39;;;;;;;9.25;4.93;;;;;;;;;;5043623;28;20193;-69
2022/05/08 06:38:05;;;;;;;8.20;5.15;;;;;;;;;;5041242;28;20219;-71
2022/05/08 06:40:33;;;;;;;9.18;4.78;;;;;;;;;;5046355;28;20116;-70
2022/05/08 06:42:59;;;;;;;11.95;5.22;;;;;;;;;;5033884;28;20040;-70
2022/05/08 06:45:24;;;;;;;12.30;5.65;;;;;;;15.82;nan;101013.75;5050287;28;20041;-68
2022/05/08 06:47:50;;;;;;;9.35;4.68;;;;;;;;;;5030421;28;20235;-70
2022/05/08 06:50:17;;;;;;;9.35;4.60;;;;;;;;;;5044785;28;20083;-70
2022/05/08 06:52:43;;;;;;;10.20;5.25;;;;;;;;;;5048179;28;20042;-71
2022/05/08 06:55:08;;;;;;;12.93;4.90;;;;;;;;;;5033376;28;20083;-71
2022/05/08 06:57:33;;;;;;;10.82;4.72;;;;;;;;;;5047741;28;20040;-70
2022/05/08 07:02:43;;;;;;;9.60;4.03;;;;;;;;;;5050560;28;20123;-71
2022/05/08 07:05:08;;;;;;;8.98;4.75;;;;;;;;;;5042575;28;20547;-71
2022/05/08 07:07:33;;;;;;;9.10;4.70;;;;;;;;;;5057999;28;20036;-71
2022/05/08 07:09:59;;;;;;;10.50;4.23;;;;;;;16.24;nan;101049.66;5061412;28;20854;-70
2022/05/08 07:12:24;;;;;;;11.82;5.35;;;;;;;;;;5056233;28;20267;-70
2022/05/08 07:14:50;;;;;;;9.68;4.78;;;;;;;;;;5067593;28;20040;-70
2022/05/08 07:17:15;;;;;;;12.38;4.97;;;;;;;16.34;nan;100984.13;5072166;28;20044;-70
2022/05/08 07:19:40;;;;;;;8.38;5.07;;;;;;;;;;5066924;28;20056;-70
2022/05/08 07:22:06;;;;;;;12.37;5.00;;;;;;;;;;5061966;28;20033;-70
2022/05/08 07:24:31;;;;;;;12.63;4.93;;;;;;;;;;5058986;28;20311;-69
2022/05/08 07:26:59;;;;;;;10.77;5.07;;;;;;;;;;5060317;28;20031;-71
2022/05/08 07:29:24;;;;;;;11.33;4.83;;;;;;;;;;5056595;28;20040;-69
2022/05/08 07:31:50;;;;;;;8.07;4.70;;;;;;;;;;5026889;28;20049;-69
2022/05/08 07:36:59;;;;;;;10.02;4.90;;;;;;;;;;5057054;28;20029;-70
2022/05/08 07:39:24;;;;;;;10.53;4.60;;;;;;;;;;5052203;28;20059;-70
2022/05/08 07:41:51;;;;;;;11.38;5.50;;;;;;;;;;5020550;28;20514;-70
2022/05/08 07:44:34;;;;;;;8.85;4.47;;;;;;;;;;5024468;28;20037;-71
2022/05/08 07:47:00;;;;;;;12.02;4.50;;;;;;;;;;5038290;28;20103;-70
2022/05/08 07:49:26;;;;;;;8.27;4.50;;;;;;;;;;5052983;28;20037;-71
2022/05/08 07:51:51;;;;;;;9.23;4.60;;;;;;;;;;5032745;28;20124;-69
2022/05/08 07:54:17;;;;;;;9.75;5.03;;;;;;;;;;5049884;28;20060;-70
2022/05/08 07:56:42;;;;;;;8.40;4.93;;;;;;;;;;5052425;28;20036;-71
2022/05/08 07:59:08;;;;;;;12.13;4.50;;;;;;;;;;5051643;28;20052;-71
2022/05/08 08:01:33;;;;;;;9.10;4.30;;;;;;;;;;5042510;28;20044;-71
2022/05/08 08:03:58;;;;;;;7.35;4.38;;;;;;;;;;5042113;28;20094;-71
2022/05/08 08:06:24;;;;;;;9.65;4.65;;;;;;;;;;5034397;28;20067;-71
2022/05/08 08:08:51;;;;;;;12.32;4.53;;;;;;;;;;5056811;28;20093;-69
2022/05/08 08:11:17;;;;;;;8.60;4.40;;;;;;;;;;5045023;28;20550;-69
2022/05/08 08:13:42;;;;;;;13.35;4.47;;;;;;;;;;5048837;28;20088;-68
2022/05/08 08:16:08;;;;;;;10.25;4.22;;;;;;;;;;5052877;28;20174;-69
2022/05/08 08:18:34;;;;;;;11.00;4.18;;;;;;;;;;5015504;28;20086;-71
2022/05/08 08:20:59;;;;;;;6.43;3.95;;;;;;;;;;5041759;28;20506;-71
2022/05/08 08:23:26;;;;;;;8.85;4.07;;;;;;;;;;5044181;28;20025;-70
2022/05/08 08:25:53;;;;;;;13.13;4.50;;;;;;;;;;5050820;28;20064;-71
2022/05/08 08:28:18;;;;;;;6.78;3.92;;;;;;;;;;5045245;28;20210;-71
2022/05/08 08:30:44;;;;;;;9.95;4.50;;;;;;;;;;5044403;28;20491;-72
2022/05/08 08:33:09;;;;;;;8.27;4.60;;;;;;;;;;5040073;28;20048;-71
2022/05/08 08:35:35;;;;;;;7.37;4.33;;;;;;;;;;5041220;28;20116;-71
2022/05/08 08:38:01;;;;;;;10.00;4.15;;;;;;;;;;5032589;28;20308;-71
2022/05/08 08:40:27;;;;;;;9.18;4.72;;;;;;;;;;5045573;28;20059;-73
2022/05/08 08:42:52;;;;;;;7.40;3.95;;;;;;;;;;5036691;28;20041;-75
2022/05/08 08:48:05;;;;;;;13.43;3.75;;;;;;;;;;5048804;28;20396;-73
2022/05/08 08:50:31;;;;;;;;;;;;;;;18.35;nan;101029.88;5045826;28;20037;-74
2022/05/08 08:52:57;;;;;;;13.38;4.05;;;;;;;;;;5047909;28;20023;-74
2022/05/08 08:55:23;;;;;;;10.40;4.25;;;;;;;;;;5049028;28;20147;-74
2022/05/08 08:57:49;;;;;;;10.38;4.95;;;;;;;;;;5048406;28;20037;-74
2022/05/08 09:00:14;;;;;;;9.07;3.97;;;;;;;;;;5037951;28;20029;-75
2022/05/08 09:02:40;;;;;;;6.03;4.05;;;;;;;;;;5029379;28;20431;-74
2022/05/08 09:05:09;;;;;;;7.40;4.03;;;;;;;;;;5055308;28;20493;-73
2022/05/08 09:07:34;;;;;;;6.70;3.63;;;;;;;18.78;nan;101043.09;5040247;28;20072;-74
2022/05/08 09:10:12;;;;;;;8.73;4.00;;;;;;;18.84;nan;101064.19;5056367;28;20068;-76
2022/05/08 09:12:39;;;;;;;11.63;3.72;;;;;;;18.95;nan;101016.97;5045378;28;20150;-74
2022/05/08 09:15:30;;;;;;;8.45;4.47;;;;;;;18.97;nan;100960.66;5049029;28;20643;-73
2022/05/08 09:17:57;;;;;;;10.27;4.30;;;;;;;19.20;nan;101024.19;5030846;28;20049;-74
2022/05/08 09:20:23;;;;;;;7.95;3.95;;;;;;;19.31;nan;101020.44;5036847;28;20033;-74
2022/05/08 09:23:09;;;;;;;9.15;3.92;;;;;;;19.36;nan;101027.66;5045817;28;20626;-72
2022/05/08 09:25:47;;;;;;;8.40;4.03;;;;;;;19.44;nan;101012.94;5034552;28;20391;-74
2022/05/08 09:28:24;;;;;;;5.85;3.78;;;;;;;;;;5048250;28;20028;-71
2022/05/08 09:31:01;;;;;;;6.70;3.40;;;;;;;19.54;nan;101012.97;5051990;28;20071;-71
2022/05/08 09:33:26;;;;;;;7.00;3.40;;;;;;;19.61;nan;101016.16;5050336;28;20029;-72
2022/05/08 09:35:52;;;;;;;7.72;4.10;;;;;;;19.56;nan;101005.44;5055147;28;20093;-68
2022/05/08 09:38:18;;;;;;;7.78;3.90;;;;;;;19.78;nan;100997.16;5035859;28;20052;-69
2022/05/08 09:40:45;;;;;;;5.72;3.25;;;;;;;;;;5031001;28;20068;-69
2022/05/08 09:43:28;;;;;;;7.97;3.67;;;;;;;19.92;nan;101005.38;5052997;28;20041;-69
2022/05/08 09:46:01;;;;;;;9.73;3.33;;;;;;;19.99;nan;100987.19;5052247;28;20856;-69
2022/05/08 09:48:28;;;;;;;10.95;3.80;;;;;;;20.08;nan;101001.59;5043603;28;20054;-69
2022/05/08 09:51:08;;;;;;;7.43;3.97;;;;;;;20.15;nan;101007.44;5053728;28;20558;-70
2022/05/08 09:53:34;;;;;;;;;;;;;;;20.18;nan;101020.28;5036821;28;20024;-69
2022/05/08 09:56:02;;;;;;;6.57;3.60;;;;;;;20.23;nan;101000.72;5050334;28;19936;-69
2022/05/08 09:58:28;;;;;;;6.38;3.63;;;;;;;20.35;nan;101006.56;5042994;28;20040;-70
2022/05/08 10:00:56;;;;;;;10.98;3.90;;;;;;;;;;5038461;28;20037;-70
2022/05/08 10:03:22;;;;;;;6.57;3.97;;;;;;;20.46;nan;100990.47;5056320;28;20486;-71
2022/05/08 10:05:49;;;;;;;7.82;3.55;;;;;;;20.52;nan;100992.81;5034360;28;20048;-75
2022/05/08 10:08:16;;;;;;;6.78;3.80;;;;;;;20.59;nan;100993.34;5057562;28;20159;-75
2022/05/08 10:14:03;;;;;;;7.75;3.80;;;;;;;;;;5045223;28;20049;-75
2022/05/08 10:17:05;;;;;;;4.82;3.47;;;;;;;20.78;nan;101043.53;5053102;28;20037;-75
2022/05/08 10:19:30;;;;;;;6.65;3.20;;;;;;;20.92;nan;100985.59;5052577;28;20033;-76
2022/05/08 10:22:14;;;;;;;9.00;3.80;;;;;;;20.95;nan;100987.75;5061783;28;20036;-76
2022/05/08 10:24:47;;;;;;;6.80;3.83;;;;;;;20.99;nan;100988.75;5048412;28;20168;-75
2022/05/08 10:27:27;;;;;;;7.22;3.42;;;;;;;21.03;nan;100980.97;5051456;28;20037;-75
2022/05/08 10:29:52;;;;;;;10.13;3.47;;;;;;;21.02;nan;100993.56;5046712;28;20045;-70
2022/05/08 10:32:33;;;;;;;8.55;3.80;;;;;;;21.09;nan;100989.75;5046353;28;20040;-71
2022/05/08 10:35:22;;;;;;;10.77;4.07;;;;;;;21.08;nan;100966.75;5048303;28;20086;-67
2022/05/08 10:38:09;;;;;;;9.85;4.00;;;;;;;21.22;nan;100979.22;5056895;28;20037;-70
2022/05/08 10:40:40;;;;;;;8.95;3.58;;;;;;;21.22;nan;100973.06;5040642;28;20048;-68
2022/05/08 10:43:19;;;;;;;7.93;3.50;;;;;;;21.23;nan;100972.75;5043677;28;20041;-68
2022/05/08 10:45:46;;;;;;;5.82;3.35;;;;;;;21.25;nan;100972.47;5039576;28;20392;-69
2022/05/08 10:48:12;;;;;;;5.05;3.20;;;;;;;21.27;nan;100988.28;5040847;28;20041;-72
2022/05/08 10:50:51;;;;;;;6.25;3.05;;;;;;;21.29;nan;100968.16;5052416;28;20458;-74
2022/05/08 10:53:20;;;;;;;5.22;3.40;;;;;;;;;;5051351;28;20055;-74
2022/05/08 10:55:46;;;;;;;7.65;3.50;;;;;;;21.30;nan;100963.59;5050955;28;20094;-74
2022/05/08 10:58:11;;;;;;;9.13;3.67;;;;;;;21.38;nan;101016.56;5053082;28;20053;-74
2022/05/08 11:00:37;;;;;;;6.82;3.53;;;;;;;21.39;nan;100968.09;5036690;28;20096;-73
2022/05/08 11:03:06;;;;;;;7.15;3.30;;;;;;;21.46;nan;100940.97;5053845;28;20103;-74
2022/05/08 11:05:37;;;;;;;6.95;3.83;;;;;;;21.56;nan;100956.13;5061790;28;20044;-76
2022/05/08 11:08:11;;;;;;;6.18;3.70;;;;;;;21.69;nan;100950.06;5042721;28;20106;-72
2022/05/08 11:10:37;;;;;;;5.40;3.40;;;;;;;21.83;nan;100945.63;5062765;28;20038;-71
2022/05/08 11:13:10;;;;;;;7.13;3.85;;;;;;;21.90;nan;100939.13;5050336;28;20084;-74
2022/05/08 11:15:36;;;;;;;6.55;3.85;;;;;;;22.02;nan;100953.69;5060126;28;20032;-73
2022/05/08 11:18:09;;;;;;;8.05;3.83;;;;;;;22.09;nan;100934.56;5048206;28;20060;-73
2022/05/08 11:20:43;;;;;;;6.13;4.03;;;;;;;22.16;nan;100926.97;5068369;28;20037;-73
2022/05/08 11:23:13;;;;;;;8.30;4.25;;;;;;;22.25;nan;100933.31;5067580;28;20040;-74
2022/05/08 11:25:39;;;;;;;13.23;5.90;;;;;;;22.33;nan;100947.94;5049628;28;20074;-75
2022/05/08 11:28:11;;;;;;;8.40;4.25;;;;;;;22.31;nan;100915.22;5067656;28;20037;-73
2022/05/08 11:30:37;;;;;;;7.85;4.47;;;;;;;22.17;nan;100939.31;5059383;28;20037;-72
2022/05/08 11:36:04;;;;;;;7.93;4.68;;;;;;;22.19;nan;100915.63;5051741;28;20045;-70
2022/05/08 11:38:50;;;;;;;8.48;4.60;;;;;;;22.22;nan;100933.06;5030233;28;20037;-70
2022/05/08 11:41:27;;;;;;;8.90;5.23;;;;;;;22.25;nan;100927.94;5052920;28;20044;-69
2022/05/08 11:43:57;;;;;;;14.75;7.28;;;;;;;22.13;nan;100930.22;5034690;28;20328;-69
2022/05/08 11:46:40;;;;;;;8.77;4.60;;;;;;;22.16;nan;100916.22;5034559;28;20082;-72
2022/05/08 11:49:16;;;;;;;9.23;4.43;;;;;;;22.27;nan;100909.66;5054230;28;20025;-70
2022/05/08 11:51:43;;;;;;;6.72;3.90;;;;;;;22.36;nan;100922.41;5037194;28;20499;-70
2022/05/08 11:54:27;;;;;;;7.32;3.45;;;;;;;22.37;nan;100897.19;5048073;28;20076;-69
2022/05/08 11:57:17;;;;;;;7.32;3.50;;;;;;;22.48;nan;100898.59;5040018;28;20032;-72
2022/05/08 12:00:04;;;;;;;8.30;4.68;;;;;;;22.62;nan;100909.41;5051047;28;20045;-73
2022/05/08 12:02:46;;;;;;;8.45;4.30;;;;;;;22.71;nan;100899.59;5047019;28;20040;-69
2022/05/08 12:05:23;;;;;;;8.20;3.88;;;;;;;22.75;nan;100918.59;5032280;28;20096;-69
2022/05/08 12:07:49;;;;;;;8.07;4.70;;;;;;;22.80;nan;100907.78;5057465;28;20043;-69
2022/05/08 12:10:16;;;;;;;11.73;4.85;;;;;;;22.83;nan;100883.81;5046777;28;20044;-70
2022/05/08 12:12:46;;;;;;;6.97;4.18;;;;;;;22.83;nan;100878.44;5029653;28;20045;-71
2022/05/08 12:15:12;;;;;;;8.23;4.30;;;;;;;22.89;nan;100895.25;5049073;28;20032;-71
2022/05/08 12:17:41;;;;;;;9.45;4.60;;;;;;;22.91;nan;100885.00;5043321;28;20041;-73
2022/05/08 12:20:09;;;;;;;;;;;;;;;23.06;nan;100889.38;5041964;28;20037;-72
2022/05/08 12:22:35;;;;;;;5.10;4.03;;;;;;;23.17;nan;100890.75;5041755;28;20375;-72
2022/05/08 12:25:02;;;;;;;7.93;4.05;;;;;;;23.18;nan;100853.94;5028785;28;20079;-72
2022/05/08 12:27:28;;;;;;;12.45;4.10;;;;;;;;;;5044724;28;20037;-74
2022/05/08 12:29:53;;;;;;;9.20;4.38;;;;;;;23.27;nan;100876.31;5058443;28;20040;-75
2022/05/08 12:32:23;;;;;;;6.25;3.97;;;;;;;23.09;nan;100876.13;5022224;28;20495;-74
2022/05/08 12:34:49;;;;;;;9.90;4.07;;;;;;;23.09;nan;100870.75;5023987;28;20490;-73
2022/05/08 12:37:16;;;;;;;7.35;4.20;;;;;;;23.17;nan;100855.03;5042035;28;20025;-73
2022/05/08 12:39:43;;;;;;;9.13;4.03;;;;;;;23.17;nan;100863.88;5033018;28;20429;-74
2022/05/08 12:42:10;;;;;;;8.50;4.18;;;;;;;23.20;nan;100887.50;5043876;28;20041;-73
2022/05/08 12:44:39;;;;;;;7.63;3.90;;;;;;;23.27;nan;100811.84;5047769;28;20036;-74
2022/05/08 12:47:08;;;;;;;10.05;3.90;;;;;;;23.24;nan;100866.97;5047802;28;20033;-74
2022/05/08 12:49:36;;;;;;;8.25;3.78;;;;;;;23.32;nan;100846.66;5049844;28;20036;-73
2022/05/08 12:52:03;;;;;;;11.05;3.97;;;;;;;23.27;nan;100850.25;5030873;28;20065;-75
2022/05/08 12:54:29;;;;;;;6.78;3.90;;;;;;;23.21;nan;100856.81;5046318;28;20025;-76
2022/05/08 12:56:54;;;;;;;8.15;3.83;;;;;;;23.19;nan;100901.22;5048689;28;20739;-73
2022/05/08 13:02:04;;;;;;;10.15;3.72;;;;;;;23.13;nan;100844.09;5044602;28;20132;-72
2022/05/08 13:04:29;;;;;;;6.90;3.85;;;;;;;23.21;nan;100894.44;5049347;28;20464;-73
2022/05/08 13:06:55;;;;;;;5.97;3.60;;;;;;;23.28;nan;100859.13;5036615;28;20025;-73
2022/05/08 13:09:20;;;;;;;6.78;3.58;;;;;;;23.32;nan;100911.16;5050947;28;20121;-73
2022/05/08 13:11:46;;;;;;;9.05;3.92;;;;;;;23.41;nan;100846.75;5050333;28;20174;-73
2022/05/08 13:14:12;;;;;;;7.25;3.95;;;;;;;23.49;nan;100832.63;5050789;28;20033;-72
2022/05/08 13:16:38;;;;;;;7.43;4.35;;;;;;;23.52;nan;100878.50;5052661;28;20036;-73
2022/05/08 13:19:03;;;;;;;9.52;3.95;;;;;;;23.56;nan;100827.63;5051844;28;20029;-72
2022/05/08 13:21:30;;;;;;;5.25;3.50;;;;;;;23.62;nan;100850.63;5053077;28;20033;-73
2022/05/08 13:23:56;;;;;;;6.43;3.60;;;;;;;23.51;nan;100812.41;5033955;28;20184;-73
2022/05/08 13:26:21;;;;;;;7.63;3.70;;;;;;;23.48;nan;100821.06;5031446;28;20045;-73
2022/05/08 13:28:47;;;;;;;5.55;3.75;;;;;;;23.65;nan;100815.06;5052765;28;20041;-72
2022/05/08 13:31:13;;;;;;;6.10;3.25;;;;;;;23.71;nan;100891.03;5053048;28;20036;-73
2022/05/08 13:33:39;;;;;;;4.65;3.50;;;;;;;23.70;nan;100836.44;5045770;28;20025;-72
2022/05/08 13:36:05;;;;;;;6.60;3.97;;;;;;;23.68;nan;100809.09;5051753;28;20137;-73
2022/05/08 13:38:30;;;;;;;7.20;3.40;;;;;;;23.65;nan;100816.94;5048987;28;20029;-73
2022/05/08 13:40:57;;;;;;;5.25;3.60;;;;;;;23.62;nan;100812.19;5051877;28;20557;-73
2022/05/08 13:43:23;;;;;;;7.05;3.63;;;;;;;23.47;nan;100808.72;5034564;28;20037;-73
2022/05/08 13:45:49;;;;;;;13.35;3.53;;;;;;;23.40;nan;100811.03;5035324;28;20482;-73
2022/05/08 13:48:15;;;;;;;6.53;3.97;;;;;;;23.45;nan;100870.06;5045743;28;20493;-73
2022/05/08 13:50:42;;;;;;;7.25;3.80;;;;;;;23.53;nan;100863.97;5048876;28;20557;-72
2022/05/08 13:53:11;;;;;;;7.80;3.45;;;;;;;23.57;nan;100821.16;5052452;28;20479;-72